This is the latest recevied weather packets stored in our database for station/object WT9M-8. If no packets are shown the sender has not sent any weather packets the latest 10 day(s).
| Time | Temp. | Humidity | Pressure | Rain* | Wind** | Luminosity | Snow |
|---|---|---|---|---|---|---|---|
| 1777193436 | 4.44° C | 88% | 1016.5 hPa | 0 mm | - | 0 W/m² | - |
| 1777192830 | 4.44° C | 88% | 1016.5 hPa | 0 mm | - | 0 W/m² | - |
| 1777186221 | 5.56° C | 86% | 1015.3 hPa | 0 mm | - | 0 W/m² | - |
| 1777180825 | 5.56° C | 81% | 1015.3 hPa | 0 mm | - | 0 W/m² | - |
| 1777177218 | 7.78° C | 82% | 1015.7 hPa | 0 mm | - | 0 W/m² | - |
| 1777170023 | 13.33° C | 64% | 1015.4 hPa | 0 mm | - | 0 W/m² | - |
| 1777168229 | 13.89° C | 61% | 1014.9 hPa | 0 mm | - | 0 W/m² | - |
| 1777167020 | 14.44° C | 59% | 1014.7 hPa | 0 mm | - | 0 W/m² | - |
| 1777164642 | 17.22° C | 53% | 1014.1 hPa | 0 mm | - | 2 W/m² | - |
| 1777164037 | 17.78° C | 52% | 1014 hPa | 0 mm | - | 5 W/m² | - |
| 1777161618 | 18.89° C | 47% | 1013.7 hPa | 0 mm | - | 23 W/m² | - |
| 1777159845 | 22.22° C | 41% | 1013.6 hPa | 0 mm | - | 54 W/m² | - |
| 1777158031 | 22.78° C | 38% | 1013.3 hPa | 0 mm | - | 123 W/m² | - |
| 1777152628 | 22.22° C | 38% | 1013.4 hPa | 0 mm | - | 246 W/m² | - |
| 1777151439 | 22.22° C | 40% | 1013.6 hPa | 0 mm | - | 186 W/m² | - |
| 1777150249 | 22.78° C | 38% | 1013.7 hPa | 0 mm | - | 171 W/m² | - |
| 1777146621 | 23.89° C | 34% | 1013.9 hPa | 0 mm | - | 437 W/m² | - |
| 1777138216 | 24.44° C | 43% | 1014.9 hPa | 0 mm | - | 475 W/m² | - |
| 1777136422 | 22.78° C | 46% | 1015.2 hPa | 0 mm | - | 596 W/m² | - |
| 1777135818 | 22.22° C | 46% | 1015.4 hPa | 0 mm | - | 562 W/m² | - |
| 1777134025 | 21.67° C | 51% | 1015.4 hPa | 0 mm | - | 560 W/m² | - |
| 1777132856 | 21.11° C | 59% | 1015.5 hPa | 0 mm | - | 515 W/m² | - |
| 1777128020 | 16.11° C | 76% | 1015.2 hPa | 0 mm | - | 193 W/m² | - |
| 1777125038 | 13.33° C | 85% | 1015.2 hPa | 0 mm | - | 229 W/m² | - |
| 1777124434 | 12.22° C | 86% | 1015.1 hPa | 0 mm | - | 135 W/m² | - |
* Rain latest hour (hover to see other rain measurements)
** Current wind speed in m/s (hover to see current wind gust speed)